SEATTLE-TACOMA INTL

KSEA (SEA)
Seattle, Washington
Towered

Vatsim Metar:
KSEA 300353Z 20006KT 10SM BKN032 BKN041 OVC050 09/06 A2981 RMK AO2 RAB16E52 SLP102 P0001 T00890061

No ATC Online

Traffic

Inbound:
Ident
Type
Name
ETA
Phase
3TGM
A319
Hubert Dorsaint KTPA
Taxiing In
DAL223
A319
Mo Reynolds KDTW
Deplaning
ASA1811
B738/L
Hunter Rubin ICT
04:56 Z
Descent
ASA447
A320/L
Evan Poe KGEG
05:25 Z
Cruse
ASA1900
B739/L
David Stretch KCCR
05:30 Z
Cruse
DAL2682
B752/L
Keith Hall KDFW
05:41 Z
Descent
ASA1837
A320/L
Michael Ignagni CYEG
06:05 Z
Cruse

Outbound:
Ident
Type
Name
Destination
Phase
ASA4352
B739/L
Michael Thomas KJFK
PANC
Climb
UAE1522
H/B77W/L
Jaron Cohen KLAX
OMDB
Climb